createdAt,value
2023-01-27T02:26:43.040Z,22.70
2023-01-27T02:29:14.798Z,22.40
2023-01-27T02:31:43.751Z,21.80
2023-01-27T02:34:17.427Z,20.30
2023-01-27T02:36:49.559Z,20.70
2023-01-27T02:39:19.752Z,20.90
2023-01-27T02:41:50.335Z,22.20
2023-01-27T02:44:19.101Z,22.40
2023-01-27T02:46:47.892Z,21.30
2023-01-27T02:49:16.285Z,19.60
2023-01-27T02:51:45.779Z,18.30
2023-01-27T02:54:14.159Z,20.10
2023-01-27T02:56:42.957Z,20.10
2023-01-27T02:59:13.480Z,20.10
2023-01-27T03:01:43.021Z,19.00
2023-01-27T03:04:12.291Z,19.90
2023-01-27T03:06:44.152Z,20.30
2023-01-27T03:09:12.745Z,20.00
2023-01-27T03:11:59.863Z,19.00
2023-01-27T03:14:48.000Z,19.60
2023-01-27T03:17:35.836Z,20.60
2023-01-27T03:20:05.159Z,19.50
2023-01-27T03:22:33.822Z,19.40
2023-01-27T03:25:03.435Z,20.20
2023-01-27T03:27:32.119Z,21.40
2023-01-27T03:30:23.442Z,21.70
2023-01-27T03:33:03.697Z,19.30
2023-01-27T03:35:49.794Z,20.10
2023-01-27T03:38:39.998Z,21.30
2023-01-27T03:41:27.311Z,20.40
2023-01-27T03:44:14.637Z,20.60
2023-01-27T03:46:43.224Z,22.50
2023-01-27T03:49:11.608Z,20.90
2023-01-27T03:51:39.985Z,20.40
2023-01-27T03:54:10.008Z,20.40
2023-01-27T03:56:39.620Z,20.90
2023-01-27T03:59:07.995Z,21.20
2023-01-27T04:01:36.446Z,20.70
2023-01-27T04:04:23.904Z,22.00
2023-01-27T04:06:52.291Z,19.90
2023-01-27T04:09:20.974Z,20.00
2023-01-27T04:11:55.316Z,19.90
2023-01-27T04:14:30.738Z,20.80
2023-01-27T04:17:04.447Z,20.70
2023-01-27T04:19:33.530Z,20.90
2023-01-27T04:22:02.069Z,21.30
2023-01-27T04:24:34.299Z,21.30
2023-01-27T04:27:05.138Z,21.90
2023-01-27T04:29:35.141Z,20.80
2023-01-27T04:32:08.552Z,21.40
2023-01-27T04:34:37.147Z,21.30
2023-01-27T04:37:07.165Z,23.40
2023-01-27T04:39:35.748Z,23.20
2023-01-27T04:42:04.199Z,23.20
2023-01-27T04:44:33.423Z,23.10
2023-01-27T04:47:01.808Z,21.20
2023-01-27T04:49:31.106Z,18.60
2023-01-27T04:51:59.486Z,22.10
2023-01-27T04:54:27.875Z,21.70
2023-01-27T04:56:58.857Z,22.50
2023-01-27T04:59:27.425Z,24.40
2023-01-27T05:01:55.961Z,23.20
2023-01-27T05:04:27.396Z,23.60
2023-01-27T05:09:25.316Z,24.10
2023-01-27T05:11:54.107Z,24.20
2023-01-27T05:14:23.866Z,23.50
2023-01-27T05:19:20.991Z,23.50
2023-01-27T05:21:49.778Z,22.80
2023-01-27T05:24:18.202Z,23.60
2023-01-27T05:26:47.071Z,23.90
2023-01-27T05:29:16.047Z,23.30
2023-01-27T05:31:45.207Z,17.60
2023-01-27T05:34:13.936Z,24.00
2023-01-27T05:36:42.416Z,23.00
2023-01-27T05:39:11.515Z,22.30
2023-01-27T05:41:39.997Z,17.40
2023-01-27T10:23:41.681Z,28.80
2023-01-27T10:26:41.864Z,29.20
2023-01-27T10:29:12.394Z,30.10
2023-01-27T10:31:49.036Z,28.80
2023-01-27T10:34:23.592Z,29.80
2023-01-27T10:37:04.671Z,28.40
2023-01-27T10:39:53.123Z,30.10
2023-01-27T10:42:41.572Z,30.40
2023-01-27T10:45:28.077Z,28.20
2023-01-27T10:48:28.102Z,28.30
2023-01-27T10:51:02.525Z,26.80
2023-01-27T10:53:46.467Z,27.20
2023-01-27T10:56:19.658Z,26.10
2023-01-27T10:58:57.257Z,27.20
2023-01-27T11:01:32.133Z,26.00
2023-01-27T11:04:16.656Z,26.40
2023-01-27T11:06:45.232Z,27.20
2023-01-27T11:09:40.137Z,27.50
2023-01-27T11:12:12.939Z,28.80
2023-01-27T11:14:46.118Z,31.00
2023-01-27T11:17:51.779Z,28.20
2023-01-27T11:20:20.156Z,26.80
2023-01-27T11:22:59.595Z,28.20
2023-01-27T11:25:30.135Z,29.50
2023-01-27T11:28:06.191Z,29.90
2023-01-27T11:30:48.842Z,29.80
2023-01-27T11:33:25.886Z,29.50
2023-01-27T11:35:54.268Z,31.00
2023-01-27T11:38:25.616Z,29.00
2023-01-27T11:40:54.406Z,31.10
2023-01-27T11:43:24.663Z,31.80
2023-01-27T11:45:58.275Z,32.40
2023-01-27T11:48:27.225Z,33.60
2023-01-27T11:50:55.707Z,34.10
2023-01-27T11:53:27.770Z,31.90
2023-01-27T11:56:00.761Z,34.50
2023-01-27T11:58:49.948Z,33.40
2023-01-27T12:01:20.968Z,33.90
2023-01-27T12:04:07.613Z,36.40
2023-01-27T12:06:41.482Z,36.90
2023-01-27T12:09:38.849Z,37.60
2023-01-27T12:12:16.443Z,37.40
2023-01-27T12:14:49.321Z,37.90
2023-01-27T12:17:41.157Z,38.90
2023-01-27T12:20:22.137Z,41.00
2023-01-27T12:22:53.585Z,41.50
2023-01-27T12:25:28.208Z,40.70
2023-01-27T12:28:03.076Z,43.00
2023-01-27T12:30:35.414Z,40.70
2023-01-27T12:33:13.617Z,40.90
2023-01-27T12:35:42.406Z,41.20
2023-01-27T12:38:17.263Z,42.60
2023-01-27T12:40:47.463Z,44.90
2023-01-27T12:43:17.683Z,45.40
2023-01-27T12:48:18.213Z,46.90
2023-01-27T12:50:55.519Z,44.70
2023-01-27T12:53:28.308Z,44.70
2023-01-27T12:56:11.458Z,44.50
2023-01-27T12:58:55.067Z,46.70
2023-01-27T13:01:30.520Z,44.20
2023-01-27T13:04:05.309Z,47.70
2023-01-27T13:06:43.764Z,46.40
2023-01-27T13:09:27.806Z,46.90
2023-01-27T13:11:57.723Z,46.80
2023-01-27T13:14:29.484Z,44.50
2023-01-27T13:17:01.451Z,43.40
2023-01-27T13:19:37.092Z,46.70
2023-01-27T13:22:05.683Z,57.30
2023-01-27T13:24:42.140Z,50.60
2023-01-27T13:27:18.161Z,54.20
2023-01-27T13:29:58.171Z,56.20
2023-01-27T13:32:28.389Z,51.40
2023-01-27T13:35:17.690Z,50.30
2023-01-27T13:38:03.450Z,52.00
2023-01-27T13:40:41.459Z,53.30
2023-01-27T13:43:32.986Z,51.00
2023-01-27T13:46:22.018Z,52.20
2023-01-27T19:58:46.804Z,26.90
2023-01-27T20:01:14.133Z,24.40
2023-01-27T20:03:41.564Z,23.50
2023-01-27T20:06:21.932Z,22.60
2023-01-27T20:08:56.156Z,24.00
2023-01-27T20:11:26.265Z,26.20
2023-01-27T20:16:20.590Z,23.20
2023-01-27T20:18:47.922Z,23.10
2023-01-27T20:21:15.173Z,21.20
2023-01-27T20:23:42.224Z,22.20
2023-01-27T20:26:13.219Z,23.60
2023-01-27T20:28:40.211Z,22.40
2023-01-27T20:31:11.623Z,21.00
2023-01-27T20:33:38.817Z,21.80
2023-01-27T20:36:07.630Z,20.10
2023-01-27T20:38:34.731Z,21.30
2023-01-27T20:41:07.803Z,21.80
2023-01-27T20:43:35.663Z,19.40
2023-01-27T20:46:04.957Z,20.30
2023-01-27T20:48:32.890Z,15.00
2023-01-27T20:51:00.854Z,20.70
2023-01-27T20:53:31.183Z,22.10
2023-01-27T20:56:01.098Z,19.60
2023-01-27T21:01:15.551Z,20.80
2023-01-27T21:03:42.729Z,21.80
2023-01-27T21:06:11.034Z,22.90
2023-01-27T21:08:38.169Z,22.10
2023-01-27T21:11:10.941Z,23.00
2023-01-27T21:13:38.200Z,20.30
2023-01-27T21:16:05.782Z,21.70
2023-01-27T21:18:33.220Z,22.00
2023-01-27T21:21:03.548Z,21.10
2023-01-27T21:23:32.153Z,21.00
2023-01-27T21:26:04.127Z,20.50
2023-01-27T21:28:33.063Z,21.60
2023-01-27T21:31:07.151Z,22.10
2023-01-27T21:33:35.724Z,22.50
2023-01-27T21:36:03.970Z,20.90
2023-01-27T21:38:32.413Z,20.10
2023-01-27T21:41:11.713Z,20.70
2023-01-27T21:43:57.161Z,16.20
2023-01-27T21:46:24.126Z,21.30
2023-01-27T21:48:51.297Z,17.80
2023-01-27T21:51:19.040Z,20.10
2023-01-27T21:53:46.192Z,20.00
2023-01-27T21:56:13.140Z,20.60
2023-01-27T21:58:40.511Z,22.20
2023-01-27T22:01:08.940Z,20.90
2023-01-27T22:03:36.334Z,20.00
